sensor_id;sensor_type;location;lat;lon;timestamp;pressure;altitude;pressure_sealevel;temperature;humidity
6094;BME280;19964;42.060;24.700;2023-05-19T00:00:54;97584.19;;;13.46;94.59
6094;BME280;19964;42.060;24.700;2023-05-19T00:03:21;97583.09;;;13.42;95.68
6094;BME280;19964;42.060;24.700;2023-05-19T00:05:48;97571.28;;;13.34;95.47
6094;BME280;19964;42.060;24.700;2023-05-19T00:08:18;97579.78;;;13.47;95.40
6094;BME280;19964;42.060;24.700;2023-05-19T00:10:47;97578.38;;;13.39;95.89
6094;BME280;19964;42.060;24.700;2023-05-19T00:13:14;97574.56;;;13.47;95.67
6094;BME280;19964;42.060;24.700;2023-05-19T00:15:42;97570.41;;;13.46;95.07
6094;BME280;19964;42.060;24.700;2023-05-19T00:18:08;97578.44;;;13.44;94.91
6094;BME280;19964;42.060;24.700;2023-05-19T00:20:38;97573.56;;;13.48;94.74
6094;BME280;19964;42.060;24.700;2023-05-19T00:23:05;97574.97;;;13.38;95.40
6094;BME280;19964;42.060;24.700;2023-05-19T00:25:31;97526.47;;;13.11;95.22
6094;BME280;19964;42.060;24.700;2023-05-19T00:27:59;97575.28;;;13.42;96.15
6094;BME280;19964;42.060;24.700;2023-05-19T00:30:26;97574.53;;;13.42;95.85
6094;BME280;19964;42.060;24.700;2023-05-19T00:32:53;97575.47;;;13.35;96.75
6094;BME280;19964;42.060;24.700;2023-05-19T00:35:20;97570.81;;;13.37;95.92
6094;BME280;19964;42.060;24.700;2023-05-19T00:37:47;97570.31;;;13.40;96.83
6094;BME280;19964;42.060;24.700;2023-05-19T00:40:20;97570.53;;;13.34;96.59
6094;BME280;19964;42.060;24.700;2023-05-19T00:42:48;97565.47;;;13.27;96.20
6094;BME280;19964;42.060;24.700;2023-05-19T00:45:16;97571.53;;;13.33;95.69
6094;BME280;19964;42.060;24.700;2023-05-19T00:47:42;97570.97;;;13.31;95.07
6094;BME280;19964;42.060;24.700;2023-05-19T00:50:09;97564.69;;;13.27;95.70
6094;BME280;19964;42.060;24.700;2023-05-19T00:52:36;97566.97;;;13.23;96.11
6094;BME280;19964;42.060;24.700;2023-05-19T00:55:04;97559.56;;;13.15;97.79
6094;BME280;19964;42.060;24.700;2023-05-19T00:57:30;97554.78;;;13.07;97.98
6094;BME280;19964;42.060;24.700;2023-05-19T00:59:57;97563.69;;;13.11;97.40
6094;BME280;19964;42.060;24.700;2023-05-19T01:02:26;97554.69;;;13.02;98.75
6094;BME280;19964;42.060;24.700;2023-05-19T01:04:55;97556.59;;;13.07;98.78
6094;BME280;19964;42.060;24.700;2023-05-19T01:07:22;97536.47;;;13.02;98.48
6094;BME280;19964;42.060;24.700;2023-05-19T01:09:50;97545.78;;;13.15;96.64
6094;BME280;19964;42.060;24.700;2023-05-19T01:12:17;97555.72;;;13.18;96.12
6094;BME280;19964;42.060;24.700;2023-05-19T01:14:44;97552.56;;;13.16;96.66
6094;BME280;19964;42.060;24.700;2023-05-19T01:17:15;97554.31;;;13.10;96.16
6094;BME280;19964;42.060;24.700;2023-05-19T01:19:58;97563.81;;;13.21;95.92
6094;BME280;19964;42.060;24.700;2023-05-19T01:23:01;97561.16;;;13.16;95.87
6094;BME280;19964;42.060;24.700;2023-05-19T01:28:52;97554.56;;;13.30;94.16
6094;BME280;19964;42.060;24.700;2023-05-19T01:31:29;97554.56;;;13.30;94.06
6094;BME280;19964;42.060;24.700;2023-05-19T01:33:57;97550.97;;;13.31;95.00
6094;BME280;19964;42.060;24.700;2023-05-19T01:36:26;97553.56;;;13.31;94.18
6094;BME280;19964;42.060;24.700;2023-05-19T01:38:58;97508.25;;;13.11;92.19
6094;BME280;19964;42.060;24.700;2023-05-19T01:41:26;97555.97;;;13.38;92.88
6094;BME280;19964;42.060;24.700;2023-05-19T01:43:54;97561.44;;;13.36;92.10
6094;BME280;19964;42.060;24.700;2023-05-19T01:46:24;97540.31;;;13.33;91.79
6094;BME280;19964;42.060;24.700;2023-05-19T01:48:53;97563.16;;;13.48;92.13
6094;BME280;19964;42.060;24.700;2023-05-19T01:51:21;97562.34;;;13.47;91.66
6094;BME280;19964;42.060;24.700;2023-05-19T01:53:47;97564.88;;;13.42;92.73
6094;BME280;19964;42.060;24.700;2023-05-19T01:56:19;97565.66;;;13.43;92.98
6094;BME280;19964;42.060;24.700;2023-05-19T01:58:58;97568.53;;;13.41;91.87
6094;BME280;19964;42.060;24.700;2023-05-19T02:01:33;97570.53;;;13.34;93.47
6094;BME280;19964;42.060;24.700;2023-05-19T02:04:15;97568.06;;;13.27;93.51
6094;BME280;19964;42.060;24.700;2023-05-19T02:06:50;97549.88;;;13.11;95.06
6094;BME280;19964;42.060;24.700;2023-05-19T02:09:24;97572.03;;;13.13;95.42
6094;BME280;19964;42.060;24.700;2023-05-19T02:11:54;97567.13;;;13.17;95.35
6094;BME280;19964;42.060;24.700;2023-05-19T02:14:28;97573.03;;;13.29;94.43
6094;BME280;19964;42.060;24.700;2023-05-19T02:16:56;97570.53;;;13.17;94.14
6094;BME280;19964;42.060;24.700;2023-05-19T02:19:26;97576.19;;;13.31;92.82
6094;BME280;19964;42.060;24.700;2023-05-19T02:21:53;97580.97;;;13.39;92.18
6094;BME280;19964;42.060;24.700;2023-05-19T02:24:20;97568.38;;;13.31;92.67
6094;BME280;19964;42.060;24.700;2023-05-19T02:26:48;97570.53;;;13.34;92.32
6094;BME280;19964;42.060;24.700;2023-05-19T02:29:14;97543.81;;;13.05;94.01
6094;BME280;19964;42.060;24.700;2023-05-19T02:31:41;97566.84;;;13.13;95.11
6094;BME280;19964;42.060;24.700;2023-05-19T02:34:08;97588.66;;;13.29;92.85
6094;BME280;19964;42.060;24.700;2023-05-19T02:36:38;97580.84;;;13.29;93.21
6094;BME280;19964;42.060;24.700;2023-05-19T02:39:05;97585.09;;;13.35;92.83
6094;BME280;19964;42.060;24.700;2023-05-19T02:41:31;97580.94;;;13.34;91.74
6094;BME280;19964;42.060;24.700;2023-05-19T02:43:58;97582.72;;;13.33;93.56
6094;BME280;19964;42.060;24.700;2023-05-19T02:46:25;97584.53;;;13.33;92.32
6094;BME280;19964;42.060;24.700;2023-05-19T02:48:52;97587.63;;;13.30;92.46
6094;BME280;19964;42.060;24.700;2023-05-19T02:51:18;97582.78;;;13.38;91.57
6094;BME280;19964;42.060;24.700;2023-05-19T02:53:47;97565.63;;;13.21;94.09
6094;BME280;19964;42.060;24.700;2023-05-19T02:56:13;97586.28;;;13.27;93.18
6094;BME280;19964;42.060;24.700;2023-05-19T02:58:40;97589.53;;;13.18;94.17
6094;BME280;19964;42.060;24.700;2023-05-19T03:01:07;97572.59;;;13.15;93.40
6094;BME280;19964;42.060;24.700;2023-05-19T03:03:34;97581.69;;;13.34;92.45
6094;BME280;19964;42.060;24.700;2023-05-19T03:06:01;97569.63;;;13.28;92.93
6094;BME280;19964;42.060;24.700;2023-05-19T03:08:28;97574.28;;;13.43;91.92
6094;BME280;19964;42.060;24.700;2023-05-19T03:10:56;97580.94;;;13.34;93.95
6094;BME280;19964;42.060;24.700;2023-05-19T03:13:22;97598.41;;;13.38;92.11
6094;BME280;19964;42.060;24.700;2023-05-19T03:15:49;97590.84;;;13.37;91.97
6094;BME280;19964;42.060;24.700;2023-05-19T03:18:16;97598.81;;;13.30;93.55
6094;BME280;19964;42.060;24.700;2023-05-19T03:20:43;97604.25;;;13.29;95.51
6094;BME280;19964;42.060;24.700;2023-05-19T03:23:10;97590.50;;;13.12;96.64
6094;BME280;19964;42.060;24.700;2023-05-19T03:25:36;97600.34;;;13.10;97.18
6094;BME280;19964;42.060;24.700;2023-05-19T03:28:05;97607.75;;;13.18;95.50
6094;BME280;19964;42.060;24.700;2023-05-19T03:30:31;97596.53;;;13.17;94.70
6094;BME280;19964;42.060;24.700;2023-05-19T03:32:58;97614.13;;;13.27;93.94
6094;BME280;19964;42.060;24.700;2023-05-19T03:35:25;97615.16;;;13.26;96.71
6094;BME280;19964;42.060;24.700;2023-05-19T03:37:52;97605.50;;;13.26;95.70
6094;BME280;19964;42.060;24.700;2023-05-19T03:40:19;97592.91;;;13.35;93.94
6094;BME280;19964;42.060;24.700;2023-05-19T03:42:46;97603.31;;;13.35;94.53
6094;BME280;19964;42.060;24.700;2023-05-19T03:45:14;97598.66;;;13.37;93.70
6094;BME280;19964;42.060;24.700;2023-05-19T03:47:41;97614.00;;;13.55;92.48
6094;BME280;19964;42.060;24.700;2023-05-19T03:50:08;97595.88;;;13.44;93.29
6094;BME280;19964;42.060;24.700;2023-05-19T03:52:35;97605.41;;;13.38;94.89
6094;BME280;19964;42.060;24.700;2023-05-19T03:55:03;97610.16;;;13.41;95.16
6094;BME280;19964;42.060;24.700;2023-05-19T03:57:30;97608.91;;;13.44;93.99
6094;BME280;19964;42.060;24.700;2023-05-19T03:59:57;97591.38;;;13.39;94.70
6094;BME280;19964;42.060;24.700;2023-05-19T04:02:25;97607.31;;;13.43;94.50
6094;BME280;19964;42.060;24.700;2023-05-19T04:04:52;97618.91;;;13.52;94.55
6094;BME280;19964;42.060;24.700;2023-05-19T04:07:19;97610.19;;;13.63;92.95
6094;BME280;19964;42.060;24.700;2023-05-19T04:09:46;97626.41;;;13.70;93.56
6094;BME280;19964;42.060;24.700;2023-05-19T04:12:13;97625.44;;;13.76;93.06
6094;BME280;19964;42.060;24.700;2023-05-19T04:14:39;97630.28;;;13.89;92.25
6094;BME280;19964;42.060;24.700;2023-05-19T04:17:06;97625.88;;;13.89;92.26
6094;BME280;19964;42.060;24.700;2023-05-19T04:19:35;97621.03;;;13.98;93.51
6094;BME280;19964;42.060;24.700;2023-05-19T04:22:02;97624.38;;;14.15;90.98
6094;BME280;19964;42.060;24.700;2023-05-19T04:24:28;97620.13;;;14.09;91.38
6094;BME280;19964;42.060;24.700;2023-05-19T04:26:55;97622.44;;;14.05;92.24
6094;BME280;19964;42.060;24.700;2023-05-19T04:29:26;97614.66;;;14.10;91.58
6094;BME280;19964;42.060;24.700;2023-05-19T04:31:53;97627.75;;;14.15;90.88
6094;BME280;19964;42.060;24.700;2023-05-19T04:34:21;97622.00;;;14.13;91.23
6094;BME280;19964;42.060;24.700;2023-05-19T04:36:49;97637.22;;;14.21;90.65
6094;BME280;19964;42.060;24.700;2023-05-19T04:39:16;97629.88;;;14.40;89.87
6094;BME280;19964;42.060;24.700;2023-05-19T04:41:43;97636.75;;;14.51;90.10
6094;BME280;19964;42.060;24.700;2023-05-19T04:44:10;97641.75;;;14.53;89.47
6094;BME280;19964;42.060;24.700;2023-05-19T04:46:37;97645.66;;;14.55;89.16
6094;BME280;19964;42.060;24.700;2023-05-19T04:49:04;97648.63;;;14.64;89.97
6094;BME280;19964;42.060;24.700;2023-05-19T04:51:32;97640.28;;;14.67;92.09
6094;BME280;19964;42.060;24.700;2023-05-19T04:54:01;97646.66;;;14.76;92.51
6094;BME280;19964;42.060;24.700;2023-05-19T04:56:28;97644.06;;;14.81;91.11
6094;BME280;19964;42.060;24.700;2023-05-19T04:58:55;97652.81;;;14.96;90.56
6094;BME280;19964;42.060;24.700;2023-05-19T05:01:21;97648.50;;;15.12;89.90
6094;BME280;19964;42.060;24.700;2023-05-19T05:03:50;97645.00;;;15.28;88.64
6094;BME280;19964;42.060;24.700;2023-05-19T05:06:19;97624.56;;;15.57;87.31
6094;BME280;19964;42.060;24.700;2023-05-19T05:08:46;97658.72;;;15.92;83.68
6094;BME280;19964;42.060;24.700;2023-05-19T05:11:14;97655.88;;;16.03;84.65
6094;BME280;19964;42.060;24.700;2023-05-19T05:13:42;97661.94;;;16.14;84.78
6094;BME280;19964;42.060;24.700;2023-05-19T05:16:10;97662.81;;;16.45;83.64
6094;BME280;19964;42.060;24.700;2023-05-19T05:18:38;97665.31;;;16.86;83.31
6094;BME280;19964;42.060;24.700;2023-05-19T05:21:05;97659.28;;;17.26;80.76
6094;BME280;19964;42.060;24.700;2023-05-19T05:23:33;97674.69;;;17.73;78.30
6094;BME280;19964;42.060;24.700;2023-05-19T05:26:05;97680.63;;;18.14;76.62
6094;BME280;19964;42.060;24.700;2023-05-19T05:28:36;97684.44;;;18.46;75.65
6094;BME280;19964;42.060;24.700;2023-05-19T05:31:03;97686.19;;;18.61;74.48
6094;BME280;19964;42.060;24.700;2023-05-19T05:33:29;97688.22;;;19.13;73.96
6094;BME280;19964;42.060;24.700;2023-05-19T05:35:59;97682.41;;;19.16;70.17
6094;BME280;19964;42.060;24.700;2023-05-19T05:38:26;97692.91;;;19.16;70.27
6094;BME280;19964;42.060;24.700;2023-05-19T05:40:53;97695.13;;;19.37;68.67
6094;BME280;19964;42.060;24.700;2023-05-19T05:43:20;97693.34;;;19.62;68.80
6094;BME280;19964;42.060;24.700;2023-05-19T05:45:48;97687.16;;;20.00;69.52
6094;BME280;19964;42.060;24.700;2023-05-19T05:48:15;97699.53;;;19.76;67.28
6094;BME280;19964;42.060;24.700;2023-05-19T05:50:43;97684.63;;;19.90;66.00
6094;BME280;19964;42.060;24.700;2023-05-19T05:53:16;97698.34;;;19.87;66.00
6094;BME280;19964;42.060;24.700;2023-05-19T05:55:44;97701.00;;;20.10;63.04
6094;BME280;19964;42.060;24.700;2023-05-19T05:58:11;97692.84;;;20.35;62.03
6094;BME280;19964;42.060;24.700;2023-05-19T06:00:40;97710.44;;;20.77;61.60
6094;BME280;19964;42.060;24.700;2023-05-19T06:03:09;97708.31;;;20.61;62.69
6094;BME280;19964;42.060;24.700;2023-05-19T06:05:36;97708.88;;;20.58;61.85
6094;BME280;19964;42.060;24.700;2023-05-19T06:08:03;97710.44;;;20.77;61.82
6094;BME280;19964;42.060;24.700;2023-05-19T06:10:30;97720.94;;;21.01;61.31
6094;BME280;19964;42.060;24.700;2023-05-19T06:12:57;97730.78;;;21.46;59.43
6094;BME280;19964;42.060;24.700;2023-05-19T06:15:24;97732.31;;;21.66;59.35
6094;BME280;19964;42.060;24.700;2023-05-19T06:17:50;97726.50;;;21.82;58.31
6094;BME280;19964;42.060;24.700;2023-05-19T06:20:20;97694.84;;;20.99;59.68
6094;BME280;19964;42.060;24.700;2023-05-19T06:22:46;97716.84;;;21.27;59.07
6094;BME280;19964;42.060;24.700;2023-05-19T06:25:13;97725.59;;;21.41;60.15
6094;BME280;19964;42.060;24.700;2023-05-19T06:27:41;97721.03;;;21.47;57.69
6094;BME280;19964;42.060;24.700;2023-05-19T06:30:08;97722.38;;;21.76;58.16
6094;BME280;19964;42.060;24.700;2023-05-19T06:32:35;97724.84;;;21.54;58.76
6094;BME280;19964;42.060;24.700;2023-05-19T06:35:02;97726.94;;;21.39;60.25
6094;BME280;19964;42.060;24.700;2023-05-19T06:37:30;97737.66;;;21.61;59.44
6094;BME280;19964;42.060;24.700;2023-05-19T06:39:57;97729.53;;;21.57;60.47
6094;BME280;19964;42.060;24.700;2023-05-19T06:42:23;97731.94;;;21.40;59.43
6094;BME280;19964;42.060;24.700;2023-05-19T06:44:50;97726.81;;;20.93;60.43
6094;BME280;19964;42.060;24.700;2023-05-19T06:47:18;97728.97;;;20.91;60.53
6094;BME280;19964;42.060;24.700;2023-05-19T06:49:45;97739.06;;;21.40;59.41
6094;BME280;19964;42.060;24.700;2023-05-19T06:52:15;97728.75;;;22.02;57.50
6094;BME280;19964;42.060;24.700;2023-05-19T06:54:43;97729.66;;;21.84;58.20
6094;BME280;19964;42.060;24.700;2023-05-19T06:57:10;97712.09;;;21.75;58.40
6094;BME280;19964;42.060;24.700;2023-05-19T06:59:36;97727.03;;;21.66;59.34
6094;BME280;19964;42.060;24.700;2023-05-19T07:02:05;97734.16;;;21.14;58.36
6094;BME280;19964;42.060;24.700;2023-05-19T07:04:32;97716.50;;;20.78;60.83
6094;BME280;19964;42.060;24.700;2023-05-19T07:06:59;97724.47;;;20.07;62.37
6094;BME280;19964;42.060;24.700;2023-05-19T07:09:26;97723.72;;;20.01;63.92
6094;BME280;19964;42.060;24.700;2023-05-19T07:11:57;97723.03;;;20.19;64.46
6094;BME280;19964;42.060;24.700;2023-05-19T07:14:24;97705.41;;;20.38;64.27
6094;BME280;19964;42.060;24.700;2023-05-19T07:16:50;97722.19;;;20.24;64.01
6094;BME280;19964;42.060;24.700;2023-05-19T07:19:17;97719.59;;;20.19;63.77
6094;BME280;19964;42.060;24.700;2023-05-19T07:21:44;97726.03;;;20.31;62.38
6094;BME280;19964;42.060;24.700;2023-05-19T07:24:11;97719.28;;;20.25;64.29
6094;BME280;19964;42.060;24.700;2023-05-19T07:26:38;97723.72;;;20.01;64.53
6094;BME280;19964;42.060;24.700;2023-05-19T07:29:06;97723.53;;;20.21;64.89
6094;BME280;19964;42.060;24.700;2023-05-19T07:31:33;97734.84;;;20.22;64.91
6094;BME280;19964;42.060;24.700;2023-05-19T07:34:00;97717.56;;;20.34;64.10
6094;BME280;19964;42.060;24.700;2023-05-19T07:36:26;97724.31;;;20.64;64.42
6094;BME280;19964;42.060;24.700;2023-05-19T07:38:53;97677.41;;;20.66;63.93
6094;BME280;19964;42.060;24.700;2023-05-19T07:41:20;97710.94;;;20.18;63.33
6094;BME280;19964;42.060;24.700;2023-05-19T07:43:47;97717.94;;;19.99;64.76
6094;BME280;19964;42.060;24.700;2023-05-19T07:46:15;97724.19;;;20.32;64.84
6094;BME280;19964;42.060;24.700;2023-05-19T07:48:42;97721.69;;;20.64;64.16
6094;BME280;19964;42.060;24.700;2023-05-19T07:51:09;97730.09;;;20.66;62.63
6094;BME280;19964;42.060;24.700;2023-05-19T07:53:36;97738.44;;;20.73;63.01
6094;BME280;19964;42.060;24.700;2023-05-19T07:56:03;97717.19;;;20.83;62.20
6094;BME280;19964;42.060;24.700;2023-05-19T07:58:30;97729.94;;;20.76;61.35
6094;BME280;19964;42.060;24.700;2023-05-19T08:00:57;97722.81;;;20.58;62.29
6094;BME280;19964;42.060;24.700;2023-05-19T08:03:26;97732.97;;;20.46;64.11
6094;BME280;19964;42.060;24.700;2023-05-19T08:05:53;97732.59;;;20.58;63.25
6094;BME280;19964;42.060;24.700;2023-05-19T08:08:19;97738.91;;;20.57;62.45
6094;BME280;19964;42.060;24.700;2023-05-19T08:10:46;97730.22;;;20.56;62.96
6094;BME280;19964;42.060;24.700;2023-05-19T08:13:13;97738.44;;;20.92;62.96
6094;BME280;19964;42.060;24.700;2023-05-19T08:15:40;97710.63;;;21.04;62.94
6094;BME280;19964;42.060;24.700;2023-05-19T08:18:06;97743.72;;;21.29;61.17
6094;BME280;19964;42.060;24.700;2023-05-19T08:20:35;97721.84;;;21.28;60.37
6094;BME280;19964;42.060;24.700;2023-05-19T08:23:02;97715.38;;;21.85;60.29
6094;BME280;19964;42.060;24.700;2023-05-19T08:25:28;97756.06;;;22.11;58.87
6094;BME280;19964;42.060;24.700;2023-05-19T08:27:55;97756.66;;;21.76;57.72
6094;BME280;19964;42.060;24.700;2023-05-19T08:30:22;97752.94;;;22.50;60.26
6094;BME280;19964;42.060;24.700;2023-05-19T08:32:49;97749.13;;;22.56;58.55
6094;BME280;19964;42.060;24.700;2023-05-19T08:35:16;97750.69;;;23.07;58.50
6094;BME280;19964;42.060;24.700;2023-05-19T08:37:44;97749.31;;;22.46;55.72
6094;BME280;19964;42.060;24.700;2023-05-19T08:40:16;97743.41;;;22.76;56.19
6094;BME280;19964;42.060;24.700;2023-05-19T08:42:43;97734.81;;;22.71;56.91
6094;BME280;19964;42.060;24.700;2023-05-19T08:45:10;97752.78;;;23.32;54.16
6094;BME280;19964;42.060;24.700;2023-05-19T08:47:37;97736.81;;;24.20;49.10
6094;BME280;19964;42.060;24.700;2023-05-19T08:50:06;97734.59;;;24.14;52.40
6094;BME280;19964;42.060;24.700;2023-05-19T08:52:42;97736.00;;;23.58;49.82
6094;BME280;19964;42.060;24.700;2023-05-19T08:55:34;97738.16;;;23.12;53.42
6094;BME280;19964;42.060;24.700;2023-05-19T08:58:02;97732.28;;;23.01;53.44
6094;BME280;19964;42.060;24.700;2023-05-19T09:00:29;97692.09;;;22.42;52.99
6094;BME280;19964;42.060;24.700;2023-05-19T09:02:57;97733.44;;;22.87;52.11
6094;BME280;19964;42.060;24.700;2023-05-19T09:05:24;97738.16;;;23.12;54.29
6094;BME280;19964;42.060;24.700;2023-05-19T09:07:51;97726.75;;;23.47;53.00
6094;BME280;19964;42.060;24.700;2023-05-19T09:10:19;97738.41;;;23.68;51.74
6094;BME280;19964;42.060;24.700;2023-05-19T09:12:46;97734.88;;;23.51;48.71
6094;BME280;19964;42.060;24.700;2023-05-19T09:15:15;97701.41;;;24.08;47.88
6094;BME280;19964;42.060;24.700;2023-05-19T09:17:44;97725.63;;;24.01;48.05
6094;BME280;19964;42.060;24.700;2023-05-19T09:20:12;97734.97;;;24.29;48.96
6094;BME280;19964;42.060;24.700;2023-05-19T09:22:41;97735.03;;;24.63;49.11
6094;BME280;19964;42.060;24.700;2023-05-19T09:25:21;97725.69;;;24.49;49.56
6094;BME280;19964;42.060;24.700;2023-05-19T09:27:48;97723.28;;;24.30;52.93
6094;BME280;19964;42.060;24.700;2023-05-19T09:30:16;97735.81;;;23.77;49.75
6094;BME280;19964;42.060;24.700;2023-05-19T09:32:44;97725.13;;;24.95;51.16
6094;BME280;19964;42.060;24.700;2023-05-19T09:35:11;97724.53;;;25.49;47.47
6094;BME280;19964;42.060;24.700;2023-05-19T09:37:41;97734.38;;;26.03;47.30
6094;BME280;19964;42.060;24.700;2023-05-19T09:40:09;97724.28;;;25.80;49.72
6094;BME280;19964;42.060;24.700;2023-05-19T09:42:38;97703.06;;;24.43;46.67
6094;BME280;19964;42.060;24.700;2023-05-19T09:45:06;97725.25;;;24.55;48.36
6094;BME280;19964;42.060;24.700;2023-05-19T09:47:34;97727.81;;;24.30;46.75
6094;BME280;19964;42.060;24.700;2023-05-19T09:50:03;97722.50;;;24.86;46.64
6094;BME280;19964;42.060;24.700;2023-05-19T09:52:33;97726.22;;;25.62;44.76
6094;BME280;19964;42.060;24.700;2023-05-19T09:55:01;97723.59;;;26.37;44.27
6094;BME280;19964;42.060;24.700;2023-05-19T09:57:32;97717.78;;;25.69;46.10
6094;BME280;19964;42.060;24.700;2023-05-19T10:00:02;97717.72;;;25.86;46.68
6094;BME280;19964;42.060;24.700;2023-05-19T10:02:36;97688.84;;;25.84;44.47
6094;BME280;19964;42.060;24.700;2023-05-19T10:05:06;97712.88;;;25.88;46.54
6094;BME280;19964;42.060;24.700;2023-05-19T10:07:34;97720.66;;;24.39;48.75
6094;BME280;19964;42.060;24.700;2023-05-19T10:10:02;97718.09;;;24.17;49.68
6094;BME280;19964;42.060;24.700;2023-05-19T10:12:29;97719.16;;;23.54;48.84
6094;BME280;19964;42.060;24.700;2023-05-19T10:14:58;97708.72;;;23.49;48.36
6094;BME280;19964;42.060;24.700;2023-05-19T10:17:26;97714.84;;;23.14;48.98
6094;BME280;19964;42.060;24.700;2023-05-19T10:19:54;97716.06;;;23.83;49.38
6094;BME280;19964;42.060;24.700;2023-05-19T10:22:22;97712.72;;;24.00;49.69
6094;BME280;19964;42.060;24.700;2023-05-19T10:24:48;97710.47;;;23.54;47.94
6094;BME280;19964;42.060;24.700;2023-05-19T10:27:15;97703.78;;;23.56;49.67
6094;BME280;19964;42.060;24.700;2023-05-19T10:29:47;97710.69;;;23.97;49.80
6094;BME280;19964;42.060;24.700;2023-05-19T10:32:19;97704.09;;;24.25;48.61
6094;BME280;19964;42.060;24.700;2023-05-19T10:37:44;97697.06;;;24.85;48.07
6094;BME280;19964;42.060;24.700;2023-05-19T10:40:20;97704.06;;;24.81;46.35
6094;BME280;19964;42.060;24.700;2023-05-19T10:43:00;97654.16;;;24.01;48.63
6094;BME280;19964;42.060;24.700;2023-05-19T10:45:29;97656.16;;;23.96;49.31
6094;BME280;19964;42.060;24.700;2023-05-19T10:47:59;97696.16;;;24.98;50.81
6094;BME280;19964;42.060;24.700;2023-05-19T10:50:34;97693.31;;;25.03;47.45
6094;BME280;19964;42.060;24.700;2023-05-19T10:53:01;97692.31;;;24.39;47.91
6094;BME280;19964;42.060;24.700;2023-05-19T10:55:44;97698.53;;;23.65;50.04
6094;BME280;19964;42.060;24.700;2023-05-19T10:58:12;97693.78;;;24.15;49.33
6094;BME280;19964;42.060;24.700;2023-05-19T11:00:39;97689.84;;;24.60;47.38
6094;BME280;19964;42.060;24.700;2023-05-19T11:03:14;97693.00;;;24.79;47.41
6094;BME280;19964;42.060;24.700;2023-05-19T11:05:42;97679.72;;;24.70;47.29
6094;BME280;19964;42.060;24.700;2023-05-19T11:08:10;97685.69;;;24.93;46.41
6094;BME280;19964;42.060;24.700;2023-05-19T11:10:37;97681.25;;;24.54;46.30
6094;BME280;19964;42.060;24.700;2023-05-19T11:13:04;97731.56;;;22.87;47.96
6094;BME280;19964;42.060;24.700;2023-05-19T11:15:33;97726.44;;;19.68;52.65
6094;BME280;19964;42.060;24.700;2023-05-19T11:18:01;97699.81;;;18.63;58.08
6094;BME280;19964;42.060;24.700;2023-05-19T11:20:29;97725.53;;;17.82;63.73
6094;BME280;19964;42.060;24.700;2023-05-19T11:23:07;97716.09;;;17.11;67.33
6094;BME280;19964;42.060;24.700;2023-05-19T11:25:43;97708.72;;;16.87;69.15
6094;BME280;19964;42.060;24.700;2023-05-19T11:28:10;97696.31;;;16.48;73.97
6094;BME280;19964;42.060;24.700;2023-05-19T11:30:40;97674.59;;;16.47;79.97
6094;BME280;19964;42.060;24.700;2023-05-19T11:33:08;97610.44;;;16.10;79.57
6094;BME280;19964;42.060;24.700;2023-05-19T11:35:36;97666.81;;;16.62;77.33
6094;BME280;19964;42.060;24.700;2023-05-19T11:38:02;97681.75;;;16.67;78.96
6094;BME280;19964;42.060;24.700;2023-05-19T11:40:32;97669.25;;;17.14;74.95
6094;BME280;19964;42.060;24.700;2023-05-19T11:42:59;97680.50;;;17.50;71.43
6094;BME280;19964;42.060;24.700;2023-05-19T11:45:28;97662.41;;;17.68;71.85
6094;BME280;19964;42.060;24.700;2023-05-19T11:47:57;97671.53;;;17.86;72.51
6094;BME280;19964;42.060;24.700;2023-05-19T11:50:24;97672.22;;;18.17;71.14
6094;BME280;19964;42.060;24.700;2023-05-19T11:52:52;97664.38;;;18.65;70.22
6094;BME280;19964;42.060;24.700;2023-05-19T11:55:19;97675.66;;;19.43;67.68
6094;BME280;19964;42.060;24.700;2023-05-19T11:57:55;97677.53;;;19.90;64.55
6094;BME280;19964;42.060;24.700;2023-05-19T12:00:23;97665.91;;;19.96;62.55
6094;BME280;19964;42.060;24.700;2023-05-19T12:02:49;97673.41;;;20.31;62.25
6094;BME280;19964;42.060;24.700;2023-05-19T12:05:20;97669.44;;;20.53;60.85
6094;BME280;19964;42.060;24.700;2023-05-19T12:07:48;97672.44;;;20.83;62.60
6094;BME280;19964;42.060;24.700;2023-05-19T12:10:16;97631.88;;;20.66;62.48
6094;BME280;19964;42.060;24.700;2023-05-19T12:12:44;97645.25;;;21.06;64.58
6094;BME280;19964;42.060;24.700;2023-05-19T12:15:13;97662.94;;;21.65;64.40
6094;BME280;19964;42.060;24.700;2023-05-19T12:17:41;97653.81;;;21.90;62.15
6094;BME280;19964;42.060;24.700;2023-05-19T12:20:08;97658.19;;;22.22;62.16
6094;BME280;19964;42.060;24.700;2023-05-19T12:22:36;97645.22;;;22.47;60.70
6094;BME280;19964;42.060;24.700;2023-05-19T12:25:04;97642.09;;;22.59;57.04
6094;BME280;19964;42.060;24.700;2023-05-19T12:27:34;97657.38;;;22.62;58.87
6094;BME280;19964;42.060;24.700;2023-05-19T12:30:05;97619.81;;;22.38;55.73
6094;BME280;19964;42.060;24.700;2023-05-19T12:32:34;97660.50;;;22.64;54.80
6094;BME280;19964;42.060;24.700;2023-05-19T12:35:02;97649.75;;;22.82;55.27
6094;BME280;19964;42.060;24.700;2023-05-19T12:37:30;97648.25;;;23.12;55.87
6094;BME280;19964;42.060;24.700;2023-05-19T12:39:57;97645.16;;;23.32;57.76
6094;BME280;19964;42.060;24.700;2023-05-19T12:42:26;97607.66;;;23.08;51.36
6094;BME280;19964;42.060;24.700;2023-05-19T12:44:56;97640.31;;;22.90;50.50
6094;BME280;19964;42.060;24.700;2023-05-19T12:47:29;97634.47;;;23.15;54.23
6094;BME280;19964;42.060;24.700;2023-05-19T12:50:05;97635.66;;;23.31;53.46
6094;BME280;19964;42.060;24.700;2023-05-19T12:52:40;97644.28;;;23.45;50.54
6094;BME280;19964;42.060;24.700;2023-05-19T12:55:08;97651.25;;;23.72;49.45
6094;BME280;19964;42.060;24.700;2023-05-19T12:57:36;97648.78;;;23.75;47.93
6094;BME280;19964;42.060;24.700;2023-05-19T13:00:05;97639.63;;;23.42;48.86
6094;BME280;19964;42.060;24.700;2023-05-19T13:02:35;97636.91;;;23.64;49.35
6094;BME280;19964;42.060;24.700;2023-05-19T13:05:03;97614.13;;;23.46;48.63
6094;BME280;19964;42.060;24.700;2023-05-19T13:07:30;97638.06;;;23.80;47.53
6094;BME280;19964;42.060;24.700;2023-05-19T13:09:57;97623.84;;;23.68;48.46
6094;BME280;19964;42.060;24.700;2023-05-19T13:12:23;97625.63;;;23.81;51.17